sensor_id;sensor_type;location;lat;lon;timestamp;P1;durP1;ratioP1;P2;durP2;ratioP2
34988;SDS011;21192;40.182;44.516;2023-05-29T00:00:21;35.08;;;9.13;;
34988;SDS011;21192;40.182;44.516;2023-05-29T00:02:48;29.90;;;7.88;;
34988;SDS011;21192;40.182;44.516;2023-05-29T00:05:15;30.52;;;8.32;;
34988;SDS011;21192;40.182;44.516;2023-05-29T00:07:42;29.70;;;7.95;;
34988;SDS011;21192;40.182;44.516;2023-05-29T00:10:08;27.92;;;7.80;;
34988;SDS011;21192;40.182;44.516;2023-05-29T00:12:35;35.22;;;9.05;;
34988;SDS011;21192;40.182;44.516;2023-05-29T00:15:02;37.05;;;9.32;;
34988;SDS011;21192;40.182;44.516;2023-05-29T00:17:31;34.97;;;9.25;;
34988;SDS011;21192;40.182;44.516;2023-05-29T00:19:59;34.55;;;9.27;;
34988;SDS011;21192;40.182;44.516;2023-05-29T00:22:27;31.30;;;8.48;;
34988;SDS011;21192;40.182;44.516;2023-05-29T00:24:53;33.58;;;9.02;;
34988;SDS011;21192;40.182;44.516;2023-05-29T00:27:18;35.10;;;8.32;;
34988;SDS011;21192;40.182;44.516;2023-05-29T00:29:45;42.45;;;10.07;;
34988;SDS011;21192;40.182;44.516;2023-05-29T00:32:11;41.78;;;12.30;;
34988;SDS011;21192;40.182;44.516;2023-05-29T00:34:37;42.88;;;9.70;;
34988;SDS011;21192;40.182;44.516;2023-05-29T00:37:02;32.08;;;10.30;;
34988;SDS011;21192;40.182;44.516;2023-05-29T00:39:28;33.38;;;9.23;;
34988;SDS011;21192;40.182;44.516;2023-05-29T00:41:56;36.45;;;9.07;;
34988;SDS011;21192;40.182;44.516;2023-05-29T00:44:21;29.95;;;9.10;;
34988;SDS011;21192;40.182;44.516;2023-05-29T00:46:51;31.20;;;9.15;;
34988;SDS011;21192;40.182;44.516;2023-05-29T00:49:19;35.10;;;9.18;;
34988;SDS011;21192;40.182;44.516;2023-05-29T00:51:46;30.38;;;7.97;;
34988;SDS011;21192;40.182;44.516;2023-05-29T00:54:15;34.42;;;9.73;;
34988;SDS011;21192;40.182;44.516;2023-05-29T00:56:51;28.13;;;7.47;;
34988;SDS011;21192;40.182;44.516;2023-05-29T00:59:17;19.92;;;6.53;;
34988;SDS011;21192;40.182;44.516;2023-05-29T01:01:46;27.17;;;7.93;;
34988;SDS011;21192;40.182;44.516;2023-05-29T01:04:14;35.08;;;7.93;;
34988;SDS011;21192;40.182;44.516;2023-05-29T01:06:41;31.73;;;7.32;;
34988;SDS011;21192;40.182;44.516;2023-05-29T01:09:07;34.05;;;7.80;;
34988;SDS011;21192;40.182;44.516;2023-05-29T01:14:11;34.95;;;7.20;;
34988;SDS011;21192;40.182;44.516;2023-05-29T01:17:33;27.30;;;7.85;;
34988;SDS011;21192;40.182;44.516;2023-05-29T01:28:07;33.40;;;7.22;;
34988;SDS011;21192;40.182;44.516;2023-05-29T01:30:36;27.30;;;8.13;;
34988;SDS011;21192;40.182;44.516;2023-05-29T01:33:04;30.88;;;8.27;;
34988;SDS011;21192;40.182;44.516;2023-05-29T01:35:30;34.38;;;8.30;;
34988;SDS011;21192;40.182;44.516;2023-05-29T01:37:57;33.10;;;8.48;;
34988;SDS011;21192;40.182;44.516;2023-05-29T01:40:23;35.05;;;8.60;;
34988;SDS011;21192;40.182;44.516;2023-05-29T01:42:49;32.45;;;8.35;;
34988;SDS011;21192;40.182;44.516;2023-05-29T01:45:15;29.20;;;7.50;;
34988;SDS011;21192;40.182;44.516;2023-05-29T01:47:42;30.90;;;7.80;;
34988;SDS011;21192;40.182;44.516;2023-05-29T01:50:08;26.23;;;8.20;;
34988;SDS011;21192;40.182;44.516;2023-05-29T01:52:35;37.80;;;9.07;;
34988;SDS011;21192;40.182;44.516;2023-05-29T01:55:01;38.58;;;9.13;;
34988;SDS011;21192;40.182;44.516;2023-05-29T01:57:27;33.55;;;8.13;;
34988;SDS011;21192;40.182;44.516;2023-05-29T01:59:54;28.77;;;8.32;;
34988;SDS011;21192;40.182;44.516;2023-05-29T02:02:21;32.83;;;7.72;;
34988;SDS011;21192;40.182;44.516;2023-05-29T02:04:50;32.95;;;8.98;;
34988;SDS011;21192;40.182;44.516;2023-05-29T02:07:17;29.52;;;9.30;;
34988;SDS011;21192;40.182;44.516;2023-05-29T02:09:42;31.77;;;9.70;;
34988;SDS011;21192;40.182;44.516;2023-05-29T02:12:08;38.08;;;9.65;;
34988;SDS011;21192;40.182;44.516;2023-05-29T02:14:34;33.30;;;8.93;;
34988;SDS011;21192;40.182;44.516;2023-05-29T02:17:00;28.73;;;9.35;;
34988;SDS011;21192;40.182;44.516;2023-05-29T02:19:26;39.40;;;9.45;;
34988;SDS011;21192;40.182;44.516;2023-05-29T02:21:52;30.83;;;9.20;;
34988;SDS011;21192;40.182;44.516;2023-05-29T02:24:18;38.08;;;9.25;;
34988;SDS011;21192;40.182;44.516;2023-05-29T02:26:45;32.20;;;8.93;;
34988;SDS011;21192;40.182;44.516;2023-05-29T02:29:12;31.55;;;10.25;;
34988;SDS011;21192;40.182;44.516;2023-05-29T02:31:38;38.33;;;9.75;;
34988;SDS011;21192;40.182;44.516;2023-05-29T02:34:04;35.47;;;10.13;;
34988;SDS011;21192;40.182;44.516;2023-05-29T02:36:30;37.90;;;9.98;;
34988;SDS011;21192;40.182;44.516;2023-05-29T02:38:56;33.80;;;10.10;;
34988;SDS011;21192;40.182;44.516;2023-05-29T02:41:22;30.88;;;8.68;;
34988;SDS011;21192;40.182;44.516;2023-05-29T02:43:48;31.15;;;9.60;;
34988;SDS011;21192;40.182;44.516;2023-05-29T02:46:13;28.48;;;9.95;;
34988;SDS011;21192;40.182;44.516;2023-05-29T02:48:39;32.70;;;9.27;;
34988;SDS011;21192;40.182;44.516;2023-05-29T02:51:05;32.78;;;8.93;;
34988;SDS011;21192;40.182;44.516;2023-05-29T02:53:31;37.92;;;9.20;;
34988;SDS011;21192;40.182;44.516;2023-05-29T02:55:57;33.42;;;9.50;;
34988;SDS011;21192;40.182;44.516;2023-05-29T02:58:22;24.75;;;9.45;;
34988;SDS011;21192;40.182;44.516;2023-05-29T03:00:48;36.30;;;9.05;;
34988;SDS011;21192;40.182;44.516;2023-05-29T03:03:15;35.75;;;10.80;;
34988;SDS011;21192;40.182;44.516;2023-05-29T03:05:41;40.25;;;10.68;;
34988;SDS011;21192;40.182;44.516;2023-05-29T03:08:07;32.95;;;10.38;;
34988;SDS011;21192;40.182;44.516;2023-05-29T03:10:32;34.88;;;10.07;;
34988;SDS011;21192;40.182;44.516;2023-05-29T03:13:00;40.97;;;10.15;;
34988;SDS011;21192;40.182;44.516;2023-05-29T03:15:26;32.97;;;10.52;;
34988;SDS011;21192;40.182;44.516;2023-05-29T03:17:51;26.30;;;9.13;;
34988;SDS011;21192;40.182;44.516;2023-05-29T03:20:17;30.38;;;8.65;;
34988;SDS011;21192;40.182;44.516;2023-05-29T03:22:43;36.83;;;10.05;;
34988;SDS011;21192;40.182;44.516;2023-05-29T03:25:09;42.53;;;10.88;;
34988;SDS011;21192;40.182;44.516;2023-05-29T03:27:35;28.45;;;9.85;;
34988;SDS011;21192;40.182;44.516;2023-05-29T03:30:01;35.25;;;10.18;;
34988;SDS011;21192;40.182;44.516;2023-05-29T03:32:27;30.10;;;10.13;;
34988;SDS011;21192;40.182;44.516;2023-05-29T03:34:53;32.95;;;10.75;;
34988;SDS011;21192;40.182;44.516;2023-05-29T03:37:20;35.63;;;10.40;;
34988;SDS011;21192;40.182;44.516;2023-05-29T03:39:46;36.60;;;9.77;;
34988;SDS011;21192;40.182;44.516;2023-05-29T03:42:12;32.80;;;9.30;;
34988;SDS011;21192;40.182;44.516;2023-05-29T03:44:38;35.58;;;10.13;;
34988;SDS011;21192;40.182;44.516;2023-05-29T03:47:05;33.42;;;9.73;;
34988;SDS011;21192;40.182;44.516;2023-05-29T03:49:33;36.30;;;9.93;;
34988;SDS011;21192;40.182;44.516;2023-05-29T03:51:59;35.72;;;9.48;;
34988;SDS011;21192;40.182;44.516;2023-05-29T03:54:25;27.80;;;8.10;;
34988;SDS011;21192;40.182;44.516;2023-05-29T03:56:51;29.27;;;7.88;;
34988;SDS011;21192;40.182;44.516;2023-05-29T03:59:17;29.95;;;9.00;;
34988;SDS011;21192;40.182;44.516;2023-05-29T04:01:43;28.77;;;8.88;;
34988;SDS011;21192;40.182;44.516;2023-05-29T04:04:08;27.67;;;8.85;;
34988;SDS011;21192;40.182;44.516;2023-05-29T04:06:35;37.35;;;9.43;;
34988;SDS011;21192;40.182;44.516;2023-05-29T04:09:04;31.40;;;8.75;;
34988;SDS011;21192;40.182;44.516;2023-05-29T04:11:32;34.70;;;8.63;;
34988;SDS011;21192;40.182;44.516;2023-05-29T04:14:01;30.58;;;8.40;;
34988;SDS011;21192;40.182;44.516;2023-05-29T04:16:27;31.02;;;9.05;;
34988;SDS011;21192;40.182;44.516;2023-05-29T04:18:54;37.88;;;8.85;;
34988;SDS011;21192;40.182;44.516;2023-05-29T04:21:20;36.17;;;9.32;;
34988;SDS011;21192;40.182;44.516;2023-05-29T04:23:46;28.17;;;8.43;;
34988;SDS011;21192;40.182;44.516;2023-05-29T04:26:12;41.70;;;10.30;;
34988;SDS011;21192;40.182;44.516;2023-05-29T04:28:38;42.85;;;10.43;;
34988;SDS011;21192;40.182;44.516;2023-05-29T04:31:04;33.60;;;9.27;;
34988;SDS011;21192;40.182;44.516;2023-05-29T04:33:32;39.83;;;10.10;;
34988;SDS011;21192;40.182;44.516;2023-05-29T04:36:02;37.58;;;10.20;;
34988;SDS011;21192;40.182;44.516;2023-05-29T04:38:29;30.77;;;9.88;;
34988;SDS011;21192;40.182;44.516;2023-05-29T04:40:56;34.95;;;9.93;;
34988;SDS011;21192;40.182;44.516;2023-05-29T04:43:25;36.22;;;10.02;;
34988;SDS011;21192;40.182;44.516;2023-05-29T04:45:53;32.35;;;9.60;;
34988;SDS011;21192;40.182;44.516;2023-05-29T04:48:19;29.15;;;9.93;;
34988;SDS011;21192;40.182;44.516;2023-05-29T04:50:45;41.42;;;10.30;;
34988;SDS011;21192;40.182;44.516;2023-05-29T04:53:11;35.10;;;8.90;;
34988;SDS011;21192;40.182;44.516;2023-05-29T04:55:36;37.05;;;9.23;;
34988;SDS011;21192;40.182;44.516;2023-05-29T04:58:02;31.20;;;7.47;;
34988;SDS011;21192;40.182;44.516;2023-05-29T05:00:28;36.97;;;8.43;;
34988;SDS011;21192;40.182;44.516;2023-05-29T05:02:54;42.13;;;8.48;;
34988;SDS011;21192;40.182;44.516;2023-05-29T05:05:20;31.80;;;9.02;;
34988;SDS011;21192;40.182;44.516;2023-05-29T05:07:46;38.33;;;8.52;;
34988;SDS011;21192;40.182;44.516;2023-05-29T05:10:12;35.85;;;8.48;;
34988;SDS011;21192;40.182;44.516;2023-05-29T05:12:38;35.55;;;9.35;;
34988;SDS011;21192;40.182;44.516;2023-05-29T05:15:04;37.20;;;8.52;;
34988;SDS011;21192;40.182;44.516;2023-05-29T05:17:30;37.50;;;9.68;;
34988;SDS011;21192;40.182;44.516;2023-05-29T05:19:56;39.90;;;11.07;;
34988;SDS011;21192;40.182;44.516;2023-05-29T05:22:22;42.20;;;16.27;;
34988;SDS011;21192;40.182;44.516;2023-05-29T05:24:48;44.13;;;15.15;;
34988;SDS011;21192;40.182;44.516;2023-05-29T05:27:14;39.22;;;14.80;;
34988;SDS011;21192;40.182;44.516;2023-05-29T05:29:39;49.28;;;15.50;;
34988;SDS011;21192;40.182;44.516;2023-05-29T05:32:05;44.72;;;16.00;;
34988;SDS011;21192;40.182;44.516;2023-05-29T05:34:31;60.65;;;17.35;;
34988;SDS011;21192;40.182;44.516;2023-05-29T05:36:57;39.15;;;14.63;;
34988;SDS011;21192;40.182;44.516;2023-05-29T05:39:23;47.97;;;14.55;;
34988;SDS011;21192;40.182;44.516;2023-05-29T05:41:49;36.78;;;14.27;;
34988;SDS011;21192;40.182;44.516;2023-05-29T05:44:15;42.20;;;14.27;;
34988;SDS011;21192;40.182;44.516;2023-05-29T05:46:41;45.55;;;14.10;;
34988;SDS011;21192;40.182;44.516;2023-05-29T05:49:06;48.40;;;14.77;;
34988;SDS011;21192;40.182;44.516;2023-05-29T05:51:34;32.83;;;13.05;;
34988;SDS011;21192;40.182;44.516;2023-05-29T05:54:00;42.28;;;14.45;;
34988;SDS011;21192;40.182;44.516;2023-05-29T05:56:26;39.25;;;13.85;;
34988;SDS011;21192;40.182;44.516;2023-05-29T05:58:52;36.78;;;14.80;;
34988;SDS011;21192;40.182;44.516;2023-05-29T06:01:17;38.17;;;13.13;;
34988;SDS011;21192;40.182;44.516;2023-05-29T06:03:44;41.53;;;11.93;;
34988;SDS011;21192;40.182;44.516;2023-05-29T06:06:09;38.72;;;13.80;;
34988;SDS011;21192;40.182;44.516;2023-05-29T06:08:35;34.88;;;12.20;;
34988;SDS011;21192;40.182;44.516;2023-05-29T06:11:02;38.35;;;11.85;;
34988;SDS011;21192;40.182;44.516;2023-05-29T06:13:28;42.70;;;12.32;;
34988;SDS011;21192;40.182;44.516;2023-05-29T06:15:54;40.25;;;13.27;;
34988;SDS011;21192;40.182;44.516;2023-05-29T06:18:20;29.38;;;10.40;;
34988;SDS011;21192;40.182;44.516;2023-05-29T06:20:47;34.95;;;12.82;;
34988;SDS011;21192;40.182;44.516;2023-05-29T06:23:12;35.92;;;11.32;;
34988;SDS011;21192;40.182;44.516;2023-05-29T06:25:38;37.55;;;10.07;;
34988;SDS011;21192;40.182;44.516;2023-05-29T06:28:04;31.70;;;10.65;;
34988;SDS011;21192;40.182;44.516;2023-05-29T06:30:31;37.47;;;10.77;;
34988;SDS011;21192;40.182;44.516;2023-05-29T06:32:57;70.03;;;13.38;;
34988;SDS011;21192;40.182;44.516;2023-05-29T06:35:23;35.17;;;9.77;;
34988;SDS011;21192;40.182;44.516;2023-05-29T06:37:48;41.70;;;9.27;;
34988;SDS011;21192;40.182;44.516;2023-05-29T06:40:14;47.15;;;11.18;;
34988;SDS011;21192;40.182;44.516;2023-05-29T06:43:26;39.85;;;9.13;;
34988;SDS011;21192;40.182;44.516;2023-05-29T06:45:53;42.10;;;9.77;;
34988;SDS011;21192;40.182;44.516;2023-05-29T06:48:19;48.17;;;10.27;;
34988;SDS011;21192;40.182;44.516;2023-05-29T06:50:46;49.05;;;10.63;;
34988;SDS011;21192;40.182;44.516;2023-05-29T06:53:13;41.92;;;10.02;;
34988;SDS011;21192;40.182;44.516;2023-05-29T06:55:39;33.63;;;9.23;;
34988;SDS011;21192;40.182;44.516;2023-05-29T06:58:08;36.60;;;8.77;;
34988;SDS011;21192;40.182;44.516;2023-05-29T07:00:33;27.75;;;8.25;;
34988;SDS011;21192;40.182;44.516;2023-05-29T07:02:59;36.38;;;9.30;;
34988;SDS011;21192;40.182;44.516;2023-05-29T07:05:26;37.45;;;8.93;;
34988;SDS011;21192;40.182;44.516;2023-05-29T07:07:52;32.63;;;8.75;;
34988;SDS011;21192;40.182;44.516;2023-05-29T07:10:18;35.60;;;9.60;;
34988;SDS011;21192;40.182;44.516;2023-05-29T07:12:44;42.97;;;10.05;;
34988;SDS011;21192;40.182;44.516;2023-05-29T07:15:10;37.70;;;9.20;;
34988;SDS011;21192;40.182;44.516;2023-05-29T07:17:35;42.08;;;9.30;;
34988;SDS011;21192;40.182;44.516;2023-05-29T07:20:02;43.97;;;10.60;;
34988;SDS011;21192;40.182;44.516;2023-05-29T07:22:30;45.78;;;10.82;;
34988;SDS011;21192;40.182;44.516;2023-05-29T07:24:55;51.72;;;10.77;;
34988;SDS011;21192;40.182;44.516;2023-05-29T07:27:21;50.13;;;9.75;;
34988;SDS011;21192;40.182;44.516;2023-05-29T07:29:47;40.72;;;9.38;;
34988;SDS011;21192;40.182;44.516;2023-05-29T07:32:13;32.50;;;9.30;;
34988;SDS011;21192;40.182;44.516;2023-05-29T07:34:39;49.38;;;9.25;;
34988;SDS011;21192;40.182;44.516;2023-05-29T07:37:05;39.25;;;8.40;;
34988;SDS011;21192;40.182;44.516;2023-05-29T07:39:34;38.72;;;7.82;;
34988;SDS011;21192;40.182;44.516;2023-05-29T07:42:01;117.53;;;13.85;;
34988;SDS011;21192;40.182;44.516;2023-05-29T07:44:27;44.60;;;8.25;;
34988;SDS011;21192;40.182;44.516;2023-05-29T07:46:54;39.25;;;8.60;;
34988;SDS011;21192;40.182;44.516;2023-05-29T07:49:20;32.33;;;7.60;;
34988;SDS011;21192;40.182;44.516;2023-05-29T07:51:46;33.00;;;7.70;;
34988;SDS011;21192;40.182;44.516;2023-05-29T07:54:11;34.10;;;7.78;;
34988;SDS011;21192;40.182;44.516;2023-05-29T07:56:37;29.40;;;7.57;;
34988;SDS011;21192;40.182;44.516;2023-05-29T07:59:05;33.95;;;7.82;;
34988;SDS011;21192;40.182;44.516;2023-05-29T08:01:32;34.05;;;6.88;;
34988;SDS011;21192;40.182;44.516;2023-05-29T08:03:58;25.55;;;7.82;;
34988;SDS011;21192;40.182;44.516;2023-05-29T08:06:24;28.80;;;8.23;;
34988;SDS011;21192;40.182;44.516;2023-05-29T08:08:50;24.73;;;7.65;;
34988;SDS011;21192;40.182;44.516;2023-05-29T08:11:17;28.52;;;7.32;;
34988;SDS011;21192;40.182;44.516;2023-05-29T08:13:43;30.17;;;6.75;;
34988;SDS011;21192;40.182;44.516;2023-05-29T08:16:09;21.58;;;6.00;;
34988;SDS011;21192;40.182;44.516;2023-05-29T08:18:35;22.67;;;6.38;;
34988;SDS011;21192;40.182;44.516;2023-05-29T08:21:01;26.90;;;7.22;;
34988;SDS011;21192;40.182;44.516;2023-05-29T08:23:27;25.90;;;6.90;;
34988;SDS011;21192;40.182;44.516;2023-05-29T08:25:53;31.77;;;9.68;;
34988;SDS011;21192;40.182;44.516;2023-05-29T08:28:19;28.77;;;9.15;;
34988;SDS011;21192;40.182;44.516;2023-05-29T08:30:46;35.70;;;11.05;;
34988;SDS011;21192;40.182;44.516;2023-05-29T08:33:12;30.92;;;8.10;;
34988;SDS011;21192;40.182;44.516;2023-05-29T08:35:38;28.17;;;8.45;;
34988;SDS011;21192;40.182;44.516;2023-05-29T08:38:04;23.30;;;7.35;;
34988;SDS011;21192;40.182;44.516;2023-05-29T08:40:31;24.67;;;7.38;;
34988;SDS011;21192;40.182;44.516;2023-05-29T08:42:58;28.45;;;7.85;;
34988;SDS011;21192;40.182;44.516;2023-05-29T08:45:32;31.23;;;7.75;;
34988;SDS011;21192;40.182;44.516;2023-05-29T08:48:00;27.00;;;7.97;;
34988;SDS011;21192;40.182;44.516;2023-05-29T08:50:27;24.27;;;6.93;;
34988;SDS011;21192;40.182;44.516;2023-05-29T08:52:53;21.90;;;8.07;;
34988;SDS011;21192;40.182;44.516;2023-05-29T08:55:21;26.30;;;6.22;;
34988;SDS011;21192;40.182;44.516;2023-05-29T08:57:47;27.08;;;7.07;;
34988;SDS011;21192;40.182;44.516;2023-05-29T09:00:13;28.60;;;9.73;;
34988;SDS011;21192;40.182;44.516;2023-05-29T09:02:43;25.02;;;8.00;;
34988;SDS011;21192;40.182;44.516;2023-05-29T09:05:09;25.63;;;6.35;;
34988;SDS011;21192;40.182;44.516;2023-05-29T09:07:36;20.17;;;6.68;;
34988;SDS011;21192;40.182;44.516;2023-05-29T09:10:13;20.95;;;6.10;;
34988;SDS011;21192;40.182;44.516;2023-05-29T09:12:40;19.42;;;6.20;;
34988;SDS011;21192;40.182;44.516;2023-05-29T09:15:16;24.25;;;6.78;;
34988;SDS011;21192;40.182;44.516;2023-05-29T09:17:43;24.17;;;5.90;;
34988;SDS011;21192;40.182;44.516;2023-05-29T09:20:15;15.90;;;5.55;;
34988;SDS011;21192;40.182;44.516;2023-05-29T09:22:46;20.40;;;5.70;;
34988;SDS011;21192;40.182;44.516;2023-05-29T09:25:18;23.27;;;5.97;;
34988;SDS011;21192;40.182;44.516;2023-05-29T09:27:48;24.88;;;6.45;;
34988;SDS011;21192;40.182;44.516;2023-05-29T09:31:01;19.23;;;5.10;;
34988;SDS011;21192;40.182;44.516;2023-05-29T09:33:05;20.48;;;6.43;;
34988;SDS011;21192;40.182;44.516;2023-05-29T09:35:42;20.17;;;5.10;;
34988;SDS011;21192;40.182;44.516;2023-05-29T09:38:09;21.40;;;4.78;;
34988;SDS011;21192;40.182;44.516;2023-05-29T09:40:37;18.80;;;4.93;;
34988;SDS011;21192;40.182;44.516;2023-05-29T09:43:14;12.00;;;4.20;;
34988;SDS011;21192;40.182;44.516;2023-05-29T09:45:45;21.88;;;5.55;;
34988;SDS011;21192;40.182;44.516;2023-05-29T09:50:40;22.15;;;7.22;;
34988;SDS011;21192;40.182;44.516;2023-05-29T09:53:23;17.35;;;5.47;;
34988;SDS011;21192;40.182;44.516;2023-05-29T09:55:50;16.15;;;4.25;;
34988;SDS011;21192;40.182;44.516;2023-05-29T09:58:18;19.63;;;4.78;;
34988;SDS011;21192;40.182;44.516;2023-05-29T10:00:44;27.67;;;6.18;;
34988;SDS011;21192;40.182;44.516;2023-05-29T10:03:12;18.83;;;4.70;;
34988;SDS011;21192;40.182;44.516;2023-05-29T10:05:41;17.48;;;5.15;;
34988;SDS011;21192;40.182;44.516;2023-05-29T10:08:09;20.83;;;4.97;;
34988;SDS011;21192;40.182;44.516;2023-05-29T10:10:46;15.68;;;3.58;;
34988;SDS011;21192;40.182;44.516;2023-05-29T10:13:19;19.65;;;4.45;;
34988;SDS011;21192;40.182;44.516;2023-05-29T10:15:49;14.52;;;5.00;;
34988;SDS011;21192;40.182;44.516;2023-05-29T10:18:27;20.13;;;4.30;;
34988;SDS011;21192;40.182;44.516;2023-05-29T10:21:00;18.58;;;4.93;;
34988;SDS011;21192;40.182;44.516;2023-05-29T10:23:28;16.02;;;4.85;;
34988;SDS011;21192;40.182;44.516;2023-05-29T10:26:06;26.33;;;6.13;;
34988;SDS011;21192;40.182;44.516;2023-05-29T10:28:35;22.40;;;5.28;;
34988;SDS011;21192;40.182;44.516;2023-05-29T10:31:08;13.07;;;3.40;;
34988;SDS011;21192;40.182;44.516;2023-05-29T10:38:49;17.63;;;3.53;;
34988;SDS011;21192;40.182;44.516;2023-05-29T10:44:03;17.25;;;3.88;;
34988;SDS011;21192;40.182;44.516;2023-05-29T10:49:18;13.13;;;4.60;;
34988;SDS011;21192;40.182;44.516;2023-05-29T10:51:47;18.85;;;6.68;;
34988;SDS011;21192;40.182;44.516;2023-05-29T10:54:14;20.45;;;5.40;;
34988;SDS011;21192;40.182;44.516;2023-05-29T10:56:41;15.88;;;4.10;;
34988;SDS011;21192;40.182;44.516;2023-05-29T10:59:10;15.95;;;3.95;;
34988;SDS011;21192;40.182;44.516;2023-05-29T11:01:38;12.68;;;3.03;;
34988;SDS011;21192;40.182;44.516;2023-05-29T11:06:45;15.77;;;3.28;;
34988;SDS011;21192;40.182;44.516;2023-05-29T11:14:44;14.07;;;3.45;;
34988;SDS011;21192;40.182;44.516;2023-05-29T11:20:06;16.38;;;3.60;;
34988;SDS011;21192;40.182;44.516;2023-05-29T11:22:48;17.20;;;3.33;;
34988;SDS011;21192;40.182;44.516;2023-05-29T11:25:25;32.72;;;6.50;;
34988;SDS011;21192;40.182;44.516;2023-05-29T11:27:52;20.45;;;4.68;;
34988;SDS011;21192;40.182;44.516;2023-05-29T11:30:21;19.52;;;4.22;;
34988;SDS011;21192;40.182;44.516;2023-05-29T11:32:47;18.92;;;3.70;;
34988;SDS011;21192;40.182;44.516;2023-05-29T11:35:15;15.07;;;3.45;;
34988;SDS011;21192;40.182;44.516;2023-05-29T11:37:43;12.85;;;3.53;;
34988;SDS011;21192;40.182;44.516;2023-05-29T11:40:12;16.13;;;3.58;;
34988;SDS011;21192;40.182;44.516;2023-05-29T11:42:42;22.90;;;4.40;;
34988;SDS011;21192;40.182;44.516;2023-05-29T11:45:13;16.85;;;3.83;;
34988;SDS011;21192;40.182;44.516;2023-05-29T11:50:25;14.88;;;3.10;;
34988;SDS011;21192;40.182;44.516;2023-05-29T11:52:55;19.25;;;3.83;;
34988;SDS011;21192;40.182;44.516;2023-05-29T11:55:22;20.25;;;4.85;;
34988;SDS011;21192;40.182;44.516;2023-05-29T11:57:49;24.70;;;4.70;;
34988;SDS011;21192;40.182;44.516;2023-05-29T12:00:17;17.52;;;4.53;;
34988;SDS011;21192;40.182;44.516;2023-05-29T12:02:44;19.75;;;4.70;;
34988;SDS011;21192;40.182;44.516;2023-05-29T12:05:15;18.73;;;4.22;;
34988;SDS011;21192;40.182;44.516;2023-05-29T12:08:01;20.27;;;3.83;;
34988;SDS011;21192;40.182;44.516;2023-05-29T12:10:27;20.33;;;4.25;;
34988;SDS011;21192;40.182;44.516;2023-05-29T12:12:54;24.88;;;5.13;;
34988;SDS011;21192;40.182;44.516;2023-05-29T12:15:24;21.88;;;5.45;;
34988;SDS011;21192;40.182;44.516;2023-05-29T12:17:50;18.95;;;4.65;;
34988;SDS011;21192;40.182;44.516;2023-05-29T12:20:18;24.13;;;4.40;;
34988;SDS011;21192;40.182;44.516;2023-05-29T12:22:45;29.05;;;4.57;;
34988;SDS011;21192;40.182;44.516;2023-05-29T12:27:41;18.25;;;4.07;;
34988;SDS011;21192;40.182;44.516;2023-05-29T12:30:12;22.48;;;4.50;;
34988;SDS011;21192;40.182;44.516;2023-05-29T12:32:40;24.58;;;4.80;;
34988;SDS011;21192;40.182;44.516;2023-05-29T12:35:17;25.98;;;5.03;;
34988;SDS011;21192;40.182;44.516;2023-05-29T12:38:27;17.65;;;4.47;;
34988;SDS011;21192;40.182;44.516;2023-05-29T12:40:34;22.17;;;3.88;;
34988;SDS011;21192;40.182;44.516;2023-05-29T12:43:02;17.00;;;4.05;;
34988;SDS011;21192;40.182;44.516;2023-05-29T12:45:31;21.45;;;4.18;;
34988;SDS011;21192;40.182;44.516;2023-05-29T12:47:59;29.67;;;4.82;;
34988;SDS011;21192;40.182;44.516;2023-05-29T12:50:35;19.38;;;4.30;;
34988;SDS011;21192;40.182;44.516;2023-05-29T12:55:37;19.85;;;5.80;;
34988;SDS011;21192;40.182;44.516;2023-05-29T12:58:04;21.90;;;5.32;;
34988;SDS011;21192;40.182;44.516;2023-05-29T13:00:31;21.80;;;5.00;;
34988;SDS011;21192;40.182;44.516;2023-05-29T13:03:01;28.20;;;5.15;;
34988;SDS011;21192;40.182;44.516;2023-05-29T13:05:28;20.10;;;5.68;;
34988;SDS011;21192;40.182;44.516;2023-05-29T13:07:54;18.85;;;5.25;;
34988;SDS011;21192;40.182;44.516;2023-05-29T13:10:20;18.15;;;6.68;;
34988;SDS011;21192;40.182;44.516;2023-05-29T13:12:49;19.88;;;5.68;;
34988;SDS011;21192;40.182;44.516;2023-05-29T13:15:19;40.08;;;6.88;;
34988;SDS011;21192;40.182;44.516;2023-05-29T13:17:45;30.20;;;6.95;;
34988;SDS011;21192;40.182;44.516;2023-05-29T13:20:11;32.13;;;7.75;;
34988;SDS011;21192;40.182;44.516;2023-05-29T13:22:38;18.40;;;5.70;;
34988;SDS011;21192;40.182;44.516;2023-05-29T13:25:05;21.08;;;5.15;;
34988;SDS011;21192;40.182;44.516;2023-05-29T13:27:33;26.67;;;5.63;;
34988;SDS011;21192;40.182;44.516;2023-05-29T13:29:59;17.00;;;4.47;;
34988;SDS011;21192;40.182;44.516;2023-05-29T13:32:26;16.77;;;4.45;;
34988;SDS011;21192;40.182;44.516;2023-05-29T13:34:51;19.00;;;5.03;;
34988;SDS011;21192;40.182;44.516;2023-05-29T13:37:17;19.17;;;5.85;;
34988;SDS011;21192;40.182;44.516;2023-05-29T13:39:43;21.98;;;5.38;;
34988;SDS011;21192;40.182;44.516;2023-05-29T13:42:09;19.88;;;6.13;;
34988;SDS011;21192;40.182;44.516;2023-05-29T13:44:35;21.70;;;8.48;;
34988;SDS011;21192;40.182;44.516;2023-05-29T13:47:02;21.08;;;7.82;;
34988;SDS011;21192;40.182;44.516;2023-05-29T13:49:27;22.73;;;6.85;;
34988;SDS011;21192;40.182;44.516;2023-05-29T13:51:53;47.10;;;9.57;;
34988;SDS011;21192;40.182;44.516;2023-05-29T13:54:19;24.50;;;10.30;;
34988;SDS011;21192;40.182;44.516;2023-05-29T13:56:46;25.77;;;7.75;;
34988;SDS011;21192;40.182;44.516;2023-05-29T13:59:12;20.95;;;6.43;;
34988;SDS011;21192;40.182;44.516;2023-05-29T14:01:38;19.65;;;6.43;;
34988;SDS011;21192;40.182;44.516;2023-05-29T14:04:03;26.13;;;7.13;;
34988;SDS011;21192;40.182;44.516;2023-05-29T14:06:29;20.55;;;6.20;;
34988;SDS011;21192;40.182;44.516;2023-05-29T14:08:55;21.95;;;8.05;;
34988;SDS011;21192;40.182;44.516;2023-05-29T14:11:21;22.10;;;7.88;;
34988;SDS011;21192;40.182;44.516;2023-05-29T14:13:47;20.55;;;6.97;;
34988;SDS011;21192;40.182;44.516;2023-05-29T14:16:13;19.00;;;7.70;;
34988;SDS011;21192;40.182;44.516;2023-05-29T14:18:40;26.10;;;8.98;;
34988;SDS011;21192;40.182;44.516;2023-05-29T14:21:06;26.17;;;10.20;;
34988;SDS011;21192;40.182;44.516;2023-05-29T14:23:33;24.17;;;9.07;;
34988;SDS011;21192;40.182;44.516;2023-05-29T14:26:00;27.73;;;8.48;;
34988;SDS011;21192;40.182;44.516;2023-05-29T14:28:26;26.90;;;11.40;;
34988;SDS011;21192;40.182;44.516;2023-05-29T14:30:52;24.02;;;9.95;;
34988;SDS011;21192;40.182;44.516;2023-05-29T14:33:18;26.25;;;13.13;;
34988;SDS011;21192;40.182;44.516;2023-05-29T14:35:44;24.13;;;13.88;;
34988;SDS011;21192;40.182;44.516;2023-05-29T14:38:10;28.58;;;11.95;;
34988;SDS011;21192;40.182;44.516;2023-05-29T14:40:35;25.42;;;10.48;;
34988;SDS011;21192;40.182;44.516;2023-05-29T14:43:02;27.17;;;9.90;;
34988;SDS011;21192;40.182;44.516;2023-05-29T14:45:28;21.80;;;9.48;;
34988;SDS011;21192;40.182;44.516;2023-05-29T14:47:54;18.20;;;9.27;;
34988;SDS011;21192;40.182;44.516;2023-05-29T14:50:19;18.08;;;6.07;;
34988;SDS011;21192;40.182;44.516;2023-05-29T14:52:45;21.48;;;6.78;;
34988;SDS011;21192;40.182;44.516;2023-05-29T14:55:12;19.17;;;6.30;;
34988;SDS011;21192;40.182;44.516;2023-05-29T14:57:40;19.50;;;5.20;;
34988;SDS011;21192;40.182;44.516;2023-05-29T15:00:06;15.88;;;6.50;;
34988;SDS011;21192;40.182;44.516;2023-05-29T15:02:33;20.27;;;6.40;;